KMAF

Midland International Air and Space Port Airport

Midland, Texas, USA
METAR KMAF 170253Z AUTO 21007KT 10SM CLR 29/18 A3007 RMK AO2 SLP132 T02890178 53010
Observed Flight Rules
Aug-17 @ 02:53 UTC (an hour ago) Visual Flight Rules
Wind Visibility Clouds
210° at 7 knots 10 miles
  • Clear skies
Temperatures Readings
Current 29°C / 84°F
Dewpoint 18°C / 64°F
Humidity 51%
Altimeter 30.07" Hg
Pressure 1013.2 hPa
Elevation 874
METAR KMAF 170253Z AUTO 21007KT 10SM CLR 29/18 A3007 RMK AO2 SLP132 T02890178 53010
Observed Flight Rules
Aug-17 @ 02:53 UTC
(an hour ago)
VFR
Wind Visibility
210° at 7 knots 10 miles
Clouds
  • Clear skies
Temperature Dewpoint
29°C / 84°F 18°C / 64°F
Humidity Altimeter Pressure
51% 30.07" Hg 1013.2 hPa